sensor_id;sensor_type;location;lat;lon;timestamp;P1;durP1;ratioP1;P2;durP2;ratioP2
33579;SDS011;19909;43.644;-79.438;2022-12-10T00:00:23;1.00;;;0.70;;
33579;SDS011;19909;43.644;-79.438;2022-12-10T00:02:49;1.23;;;0.65;;
33579;SDS011;19909;43.644;-79.438;2022-12-10T00:05:15;0.60;;;0.43;;
33579;SDS011;19909;43.644;-79.438;2022-12-10T00:07:42;0.57;;;0.50;;
33579;SDS011;19909;43.644;-79.438;2022-12-10T00:10:08;0.98;;;0.73;;
33579;SDS011;19909;43.644;-79.438;2022-12-10T00:12:34;1.05;;;0.57;;
33579;SDS011;19909;43.644;-79.438;2022-12-10T00:15:00;0.63;;;0.50;;
33579;SDS011;19909;43.644;-79.438;2022-12-10T00:17:27;0.77;;;0.50;;
33579;SDS011;19909;43.644;-79.438;2022-12-10T00:19:53;1.05;;;0.60;;
33579;SDS011;19909;43.644;-79.438;2022-12-10T00:22:19;1.20;;;0.70;;
33579;SDS011;19909;43.644;-79.438;2022-12-10T00:24:45;0.77;;;0.52;;
33579;SDS011;19909;43.644;-79.438;2022-12-10T00:27:12;1.13;;;0.65;;
33579;SDS011;19909;43.644;-79.438;2022-12-10T00:29:39;1.02;;;0.60;;
33579;SDS011;19909;43.644;-79.438;2022-12-10T00:32:05;1.40;;;0.90;;
33579;SDS011;19909;43.644;-79.438;2022-12-10T00:34:32;1.15;;;0.70;;
33579;SDS011;19909;43.644;-79.438;2022-12-10T00:36:58;1.63;;;0.90;;
33579;SDS011;19909;43.644;-79.438;2022-12-10T00:39:24;0.95;;;0.60;;
33579;SDS011;19909;43.644;-79.438;2022-12-10T00:41:52;1.75;;;0.70;;
33579;SDS011;19909;43.644;-79.438;2022-12-10T00:44:18;1.83;;;1.05;;
33579;SDS011;19909;43.644;-79.438;2022-12-10T00:46:44;1.23;;;0.80;;
33579;SDS011;19909;43.644;-79.438;2022-12-10T00:49:10;0.70;;;0.50;;
33579;SDS011;19909;43.644;-79.438;2022-12-10T00:51:37;0.68;;;0.50;;
33579;SDS011;19909;43.644;-79.438;2022-12-10T00:54:03;1.35;;;0.88;;
33579;SDS011;19909;43.644;-79.438;2022-12-10T00:56:31;1.98;;;0.68;;
33579;SDS011;19909;43.644;-79.438;2022-12-10T00:58:58;0.88;;;0.70;;
33579;SDS011;19909;43.644;-79.438;2022-12-10T01:01:29;1.52;;;0.80;;
33579;SDS011;19909;43.644;-79.438;2022-12-10T01:04:00;0.93;;;0.80;;
33579;SDS011;19909;43.644;-79.438;2022-12-10T01:09:00;1.35;;;0.70;;
33579;SDS011;19909;43.644;-79.438;2022-12-10T01:11:31;1.33;;;0.85;;
33579;SDS011;19909;43.644;-79.438;2022-12-10T01:14:00;1.13;;;0.75;;
33579;SDS011;19909;43.644;-79.438;2022-12-10T01:16:26;0.88;;;0.55;;
33579;SDS011;19909;43.644;-79.438;2022-12-10T01:18:53;0.50;;;0.50;;
33579;SDS011;19909;43.644;-79.438;2022-12-10T01:21:24;1.17;;;0.80;;
33579;SDS011;19909;43.644;-79.438;2022-12-10T01:23:51;1.90;;;0.68;;
33579;SDS011;19909;43.644;-79.438;2022-12-10T01:26:20;1.10;;;0.68;;
33579;SDS011;19909;43.644;-79.438;2022-12-10T01:28:51;0.80;;;0.50;;
33579;SDS011;19909;43.644;-79.438;2022-12-10T01:31:20;1.50;;;0.77;;
33579;SDS011;19909;43.644;-79.438;2022-12-10T01:33:48;0.90;;;0.57;;
33579;SDS011;19909;43.644;-79.438;2022-12-10T01:36:18;1.77;;;1.08;;
33579;SDS011;19909;43.644;-79.438;2022-12-10T01:38:47;1.40;;;0.80;;
33579;SDS011;19909;43.644;-79.438;2022-12-10T01:41:21;0.93;;;0.60;;
33579;SDS011;19909;43.644;-79.438;2022-12-10T01:46:27;0.70;;;0.57;;
33579;SDS011;19909;43.644;-79.438;2022-12-10T01:51:27;1.25;;;0.73;;
33579;SDS011;19909;43.644;-79.438;2022-12-10T01:53:55;2.08;;;0.90;;
33579;SDS011;19909;43.644;-79.438;2022-12-10T01:56:22;0.73;;;0.57;;
33579;SDS011;19909;43.644;-79.438;2022-12-10T01:58:49;1.58;;;0.90;;
33579;SDS011;19909;43.644;-79.438;2022-12-10T02:01:29;1.23;;;0.60;;
33579;SDS011;19909;43.644;-79.438;2022-12-10T02:15:00;0.73;;;0.50;;
33579;SDS011;19909;43.644;-79.438;2022-12-10T02:17:23;1.10;;;0.85;;
33579;SDS011;19909;43.644;-79.438;2022-12-10T02:22:45;1.02;;;0.70;;
33579;SDS011;19909;43.644;-79.438;2022-12-10T02:25:20;0.98;;;0.70;;
33579;SDS011;19909;43.644;-79.438;2022-12-10T02:31:05;1.45;;;1.00;;
33579;SDS011;19909;43.644;-79.438;2022-12-10T02:33:32;0.52;;;0.50;;
33579;SDS011;19909;43.644;-79.438;2022-12-10T02:36:00;0.70;;;0.60;;
33579;SDS011;19909;43.644;-79.438;2022-12-10T02:38:29;1.08;;;0.50;;
33579;SDS011;19909;43.644;-79.438;2022-12-10T02:40:58;0.82;;;0.65;;
33579;SDS011;19909;43.644;-79.438;2022-12-10T02:43:31;1.05;;;0.60;;
33579;SDS011;19909;43.644;-79.438;2022-12-10T02:45:59;0.93;;;0.63;;
33579;SDS011;19909;43.644;-79.438;2022-12-10T02:48:29;0.75;;;0.50;;
33579;SDS011;19909;43.644;-79.438;2022-12-10T02:50:56;1.17;;;0.52;;
33579;SDS011;19909;43.644;-79.438;2022-12-10T02:53:23;1.27;;;0.52;;
33579;SDS011;19909;43.644;-79.438;2022-12-10T02:56:10;0.85;;;0.47;;
33579;SDS011;19909;43.644;-79.438;2022-12-10T03:04:00;1.40;;;0.57;;
33579;SDS011;19909;43.644;-79.438;2022-12-10T03:06:32;0.70;;;0.45;;
33579;SDS011;19909;43.644;-79.438;2022-12-10T03:09:05;0.73;;;0.47;;
33579;SDS011;19909;43.644;-79.438;2022-12-10T03:11:44;0.50;;;0.50;;
33579;SDS011;19909;43.644;-79.438;2022-12-10T03:14:24;0.60;;;0.45;;
33579;SDS011;19909;43.644;-79.438;2022-12-10T03:16:55;1.25;;;0.50;;
33579;SDS011;19909;43.644;-79.438;2022-12-10T03:20:05;1.20;;;0.43;;
33579;SDS011;19909;43.644;-79.438;2022-12-10T03:22:14;1.17;;;0.40;;
33579;SDS011;19909;43.644;-79.438;2022-12-10T03:24:44;0.70;;;0.40;;
33579;SDS011;19909;43.644;-79.438;2022-12-10T03:27:11;1.10;;;0.50;;
33579;SDS011;19909;43.644;-79.438;2022-12-10T03:29:41;1.48;;;0.50;;
33579;SDS011;19909;43.644;-79.438;2022-12-10T03:32:09;1.73;;;0.60;;
33579;SDS011;19909;43.644;-79.438;2022-12-10T03:34:36;0.70;;;0.50;;
33579;SDS011;19909;43.644;-79.438;2022-12-10T03:37:03;0.68;;;0.40;;
33579;SDS011;19909;43.644;-79.438;2022-12-10T03:39:30;0.57;;;0.40;;
33579;SDS011;19909;43.644;-79.438;2022-12-10T03:41:57;0.82;;;0.60;;
33579;SDS011;19909;43.644;-79.438;2022-12-10T03:44:30;0.63;;;0.40;;
33579;SDS011;19909;43.644;-79.438;2022-12-10T03:46:57;1.52;;;0.60;;
33579;SDS011;19909;43.644;-79.438;2022-12-10T03:49:24;0.90;;;0.40;;
33579;SDS011;19909;43.644;-79.438;2022-12-10T03:51:50;1.05;;;0.30;;
33579;SDS011;19909;43.644;-79.438;2022-12-10T03:54:17;0.60;;;0.50;;
33579;SDS011;19909;43.644;-79.438;2022-12-10T03:56:43;0.52;;;0.35;;
33579;SDS011;19909;43.644;-79.438;2022-12-10T03:59:09;1.23;;;0.45;;
33579;SDS011;19909;43.644;-79.438;2022-12-10T04:01:36;1.65;;;0.43;;
33579;SDS011;19909;43.644;-79.438;2022-12-10T04:04:03;1.02;;;0.28;;
33579;SDS011;19909;43.644;-79.438;2022-12-10T04:06:30;0.50;;;0.40;;
33579;SDS011;19909;43.644;-79.438;2022-12-10T04:08:57;0.68;;;0.40;;
33579;SDS011;19909;43.644;-79.438;2022-12-10T04:11:23;0.60;;;0.40;;
33579;SDS011;19909;43.644;-79.438;2022-12-10T04:13:50;0.93;;;0.45;;
33579;SDS011;19909;43.644;-79.438;2022-12-10T04:16:35;0.98;;;0.30;;
33579;SDS011;19909;43.644;-79.438;2022-12-10T04:19:04;1.13;;;0.40;;
33579;SDS011;19909;43.644;-79.438;2022-12-10T04:21:32;0.60;;;0.40;;
33579;SDS011;19909;43.644;-79.438;2022-12-10T04:24:20;0.60;;;0.35;;
33579;SDS011;19909;43.644;-79.438;2022-12-10T04:27:08;0.60;;;0.30;;
33579;SDS011;19909;43.644;-79.438;2022-12-10T04:29:41;0.30;;;0.30;;
33579;SDS011;19909;43.644;-79.438;2022-12-10T04:32:07;1.05;;;0.40;;
33579;SDS011;19909;43.644;-79.438;2022-12-10T04:34:34;0.35;;;0.30;;
33579;SDS011;19909;43.644;-79.438;2022-12-10T04:37:01;0.40;;;0.28;;
33579;SDS011;19909;43.644;-79.438;2022-12-10T04:39:28;1.10;;;0.40;;
33579;SDS011;19909;43.644;-79.438;2022-12-10T04:41:55;0.60;;;0.40;;
33579;SDS011;19909;43.644;-79.438;2022-12-10T04:44:22;0.70;;;0.30;;
33579;SDS011;19909;43.644;-79.438;2022-12-10T04:46:48;0.50;;;0.28;;
33579;SDS011;19909;43.644;-79.438;2022-12-10T04:49:16;1.20;;;0.57;;
33579;SDS011;19909;43.644;-79.438;2022-12-10T04:51:43;0.30;;;0.30;;
33579;SDS011;19909;43.644;-79.438;2022-12-10T04:54:09;0.50;;;0.30;;
33579;SDS011;19909;43.644;-79.438;2022-12-10T04:56:36;0.57;;;0.43;;
33579;SDS011;19909;43.644;-79.438;2022-12-10T04:59:03;0.80;;;0.40;;
33579;SDS011;19909;43.644;-79.438;2022-12-10T05:01:30;0.65;;;0.30;;
33579;SDS011;19909;43.644;-79.438;2022-12-10T05:04:00;0.52;;;0.28;;
33579;SDS011;19909;43.644;-79.438;2022-12-10T05:06:28;0.50;;;0.30;;
33579;SDS011;19909;43.644;-79.438;2022-12-10T05:08:55;0.30;;;0.20;;
33579;SDS011;19909;43.644;-79.438;2022-12-10T05:11:22;0.35;;;0.28;;
33579;SDS011;19909;43.644;-79.438;2022-12-10T05:13:51;0.80;;;0.30;;
33579;SDS011;19909;43.644;-79.438;2022-12-10T05:16:19;0.40;;;0.25;;
33579;SDS011;19909;43.644;-79.438;2022-12-10T05:18:47;0.75;;;0.50;;
33579;SDS011;19909;43.644;-79.438;2022-12-10T05:21:14;0.80;;;0.30;;
33579;SDS011;19909;43.644;-79.438;2022-12-10T05:23:43;0.52;;;0.30;;
33579;SDS011;19909;43.644;-79.438;2022-12-10T05:28:41;0.60;;;0.50;;
33579;SDS011;19909;43.644;-79.438;2022-12-10T05:31:17;0.73;;;0.38;;
33579;SDS011;19909;43.644;-79.438;2022-12-10T05:33:44;0.32;;;0.20;;
33579;SDS011;19909;43.644;-79.438;2022-12-10T05:36:12;0.47;;;0.22;;
33579;SDS011;19909;43.644;-79.438;2022-12-10T05:38:39;0.68;;;0.20;;
33579;SDS011;19909;43.644;-79.438;2022-12-10T05:41:11;0.57;;;0.32;;
33579;SDS011;19909;43.644;-79.438;2022-12-10T05:43:42;0.50;;;0.35;;
33579;SDS011;19909;43.644;-79.438;2022-12-10T05:46:10;0.40;;;0.30;;
33579;SDS011;19909;43.644;-79.438;2022-12-10T05:48:38;0.57;;;0.30;;
33579;SDS011;19909;43.644;-79.438;2022-12-10T05:51:08;1.55;;;0.30;;
33579;SDS011;19909;43.644;-79.438;2022-12-10T05:53:36;0.52;;;0.32;;
33579;SDS011;19909;43.644;-79.438;2022-12-10T05:56:04;0.38;;;0.22;;
33579;SDS011;19909;43.644;-79.438;2022-12-10T05:58:32;0.38;;;0.30;;
33579;SDS011;19909;43.644;-79.438;2022-12-10T06:00:59;0.43;;;0.20;;
33579;SDS011;19909;43.644;-79.438;2022-12-10T06:03:31;0.70;;;0.30;;
33579;SDS011;19909;43.644;-79.438;2022-12-10T06:05:57;0.55;;;0.30;;
33579;SDS011;19909;43.644;-79.438;2022-12-10T06:08:23;0.70;;;0.30;;
33579;SDS011;19909;43.644;-79.438;2022-12-10T06:10:50;0.43;;;0.28;;
33579;SDS011;19909;43.644;-79.438;2022-12-10T06:13:16;0.50;;;0.30;;
33579;SDS011;19909;43.644;-79.438;2022-12-10T06:15:42;0.85;;;0.30;;
33579;SDS011;19909;43.644;-79.438;2022-12-10T06:18:08;0.47;;;0.20;;
33579;SDS011;19909;43.644;-79.438;2022-12-10T06:20:37;0.32;;;0.25;;
33579;SDS011;19909;43.644;-79.438;2022-12-10T06:23:04;0.82;;;0.30;;
33579;SDS011;19909;43.644;-79.438;2022-12-10T06:25:31;0.70;;;0.40;;
33579;SDS011;19909;43.644;-79.438;2022-12-10T06:27:57;0.45;;;0.20;;
33579;SDS011;19909;43.644;-79.438;2022-12-10T06:30:24;1.85;;;0.40;;
33579;SDS011;19909;43.644;-79.438;2022-12-10T06:32:50;0.65;;;0.30;;
33579;SDS011;19909;43.644;-79.438;2022-12-10T06:35:17;0.80;;;0.40;;
33579;SDS011;19909;43.644;-79.438;2022-12-10T06:37:43;0.40;;;0.20;;
33579;SDS011;19909;43.644;-79.438;2022-12-10T06:40:09;0.63;;;0.40;;
33579;SDS011;19909;43.644;-79.438;2022-12-10T06:42:35;0.65;;;0.38;;
33579;SDS011;19909;43.644;-79.438;2022-12-10T06:45:02;0.20;;;0.20;;
33579;SDS011;19909;43.644;-79.438;2022-12-10T06:47:28;0.40;;;0.30;;
33579;SDS011;19909;43.644;-79.438;2022-12-10T06:49:55;0.32;;;0.30;;
33579;SDS011;19909;43.644;-79.438;2022-12-10T06:52:22;0.43;;;0.30;;
33579;SDS011;19909;43.644;-79.438;2022-12-10T06:54:48;0.43;;;0.30;;
33579;SDS011;19909;43.644;-79.438;2022-12-10T06:57:14;1.30;;;0.30;;
33579;SDS011;19909;43.644;-79.438;2022-12-10T06:59:40;0.30;;;0.22;;
33579;SDS011;19909;43.644;-79.438;2022-12-10T07:02:07;0.35;;;0.28;;
33579;SDS011;19909;43.644;-79.438;2022-12-10T07:04:36;1.25;;;0.38;;
33579;SDS011;19909;43.644;-79.438;2022-12-10T07:07:04;1.70;;;0.50;;
33579;SDS011;19909;43.644;-79.438;2022-12-10T07:09:32;1.08;;;0.32;;
33579;SDS011;19909;43.644;-79.438;2022-12-10T07:11:58;0.50;;;0.30;;
33579;SDS011;19909;43.644;-79.438;2022-12-10T07:14:25;0.60;;;0.40;;
33579;SDS011;19909;43.644;-79.438;2022-12-10T07:16:51;0.82;;;0.40;;
33579;SDS011;19909;43.644;-79.438;2022-12-10T07:19:17;1.33;;;0.30;;
33579;SDS011;19909;43.644;-79.438;2022-12-10T07:21:43;0.70;;;0.30;;
33579;SDS011;19909;43.644;-79.438;2022-12-10T07:24:12;0.50;;;0.35;;
33579;SDS011;19909;43.644;-79.438;2022-12-10T07:26:40;1.27;;;0.40;;
33579;SDS011;19909;43.644;-79.438;2022-12-10T07:29:15;0.65;;;0.30;;
33579;SDS011;19909;43.644;-79.438;2022-12-10T07:31:43;1.25;;;0.30;;
33579;SDS011;19909;43.644;-79.438;2022-12-10T07:34:10;0.35;;;0.20;;
33579;SDS011;19909;43.644;-79.438;2022-12-10T07:36:37;0.40;;;0.20;;
33579;SDS011;19909;43.644;-79.438;2022-12-10T07:39:07;0.40;;;0.30;;
33579;SDS011;19909;43.644;-79.438;2022-12-10T07:41:34;0.77;;;0.20;;
33579;SDS011;19909;43.644;-79.438;2022-12-10T07:44:01;0.40;;;0.20;;
33579;SDS011;19909;43.644;-79.438;2022-12-10T07:46:32;0.70;;;0.22;;
33579;SDS011;19909;43.644;-79.438;2022-12-10T07:49:01;0.10;;;0.10;;
33579;SDS011;19909;43.644;-79.438;2022-12-10T07:51:28;0.20;;;0.17;;
33579;SDS011;19909;43.644;-79.438;2022-12-10T07:53:55;0.63;;;0.30;;
33579;SDS011;19909;43.644;-79.438;2022-12-10T07:56:22;0.43;;;0.40;;
33579;SDS011;19909;43.644;-79.438;2022-12-10T07:58:49;0.73;;;0.20;;
33579;SDS011;19909;43.644;-79.438;2022-12-10T08:01:17;0.68;;;0.20;;
33579;SDS011;19909;43.644;-79.438;2022-12-10T08:03:47;0.17;;;0.17;;
33579;SDS011;19909;43.644;-79.438;2022-12-10T08:06:14;0.43;;;0.30;;
33579;SDS011;19909;43.644;-79.438;2022-12-10T08:08:43;0.40;;;0.30;;
33579;SDS011;19909;43.644;-79.438;2022-12-10T08:11:10;0.85;;;0.40;;
33579;SDS011;19909;43.644;-79.438;2022-12-10T08:13:37;0.20;;;0.10;;
33579;SDS011;19909;43.644;-79.438;2022-12-10T08:16:05;0.40;;;0.20;;
33579;SDS011;19909;43.644;-79.438;2022-12-10T08:18:33;0.68;;;0.30;;
33579;SDS011;19909;43.644;-79.438;2022-12-10T08:21:04;0.55;;;0.30;;
33579;SDS011;19909;43.644;-79.438;2022-12-10T08:23:31;0.77;;;0.40;;
33579;SDS011;19909;43.644;-79.438;2022-12-10T08:25:58;0.80;;;0.50;;
33579;SDS011;19909;43.644;-79.438;2022-12-10T08:28:27;1.25;;;0.28;;
33579;SDS011;19909;43.644;-79.438;2022-12-10T08:30:54;0.45;;;0.30;;
33579;SDS011;19909;43.644;-79.438;2022-12-10T08:33:21;0.60;;;0.38;;
33579;SDS011;19909;43.644;-79.438;2022-12-10T08:35:47;0.93;;;0.28;;
33579;SDS011;19909;43.644;-79.438;2022-12-10T08:38:13;0.57;;;0.30;;
33579;SDS011;19909;43.644;-79.438;2022-12-10T08:40:40;0.80;;;0.30;;
33579;SDS011;19909;43.644;-79.438;2022-12-10T08:43:07;0.30;;;0.30;;
33579;SDS011;19909;43.644;-79.438;2022-12-10T08:45:34;0.20;;;0.20;;
33579;SDS011;19909;43.644;-79.438;2022-12-10T08:48:01;0.30;;;0.30;;
33579;SDS011;19909;43.644;-79.438;2022-12-10T08:50:28;0.60;;;0.40;;
33579;SDS011;19909;43.644;-79.438;2022-12-10T08:52:54;0.43;;;0.30;;
33579;SDS011;19909;43.644;-79.438;2022-12-10T08:55:20;1.83;;;0.30;;
33579;SDS011;19909;43.644;-79.438;2022-12-10T08:57:46;0.30;;;0.30;;
33579;SDS011;19909;43.644;-79.438;2022-12-10T09:00:12;0.70;;;0.30;;
33579;SDS011;19909;43.644;-79.438;2022-12-10T09:02:39;0.20;;;0.15;;
33579;SDS011;19909;43.644;-79.438;2022-12-10T09:05:05;0.20;;;0.17;;
33579;SDS011;19909;43.644;-79.438;2022-12-10T09:07:32;0.90;;;0.40;;
33579;SDS011;19909;43.644;-79.438;2022-12-10T09:09:59;0.30;;;0.20;;
33579;SDS011;19909;43.644;-79.438;2022-12-10T09:12:25;0.90;;;0.32;;
33579;SDS011;19909;43.644;-79.438;2022-12-10T09:14:51;0.77;;;0.20;;
33579;SDS011;19909;43.644;-79.438;2022-12-10T09:17:17;0.52;;;0.20;;
33579;SDS011;19909;43.644;-79.438;2022-12-10T09:19:43;0.80;;;0.22;;
33579;SDS011;19909;43.644;-79.438;2022-12-10T09:22:10;1.50;;;0.40;;
33579;SDS011;19909;43.644;-79.438;2022-12-10T09:24:36;0.50;;;0.40;;
33579;SDS011;19909;43.644;-79.438;2022-12-10T09:27:02;0.25;;;0.20;;
33579;SDS011;19909;43.644;-79.438;2022-12-10T09:29:28;0.25;;;0.22;;
33579;SDS011;19909;43.644;-79.438;2022-12-10T09:31:55;0.38;;;0.30;;
33579;SDS011;19909;43.644;-79.438;2022-12-10T09:34:21;0.25;;;0.17;;
33579;SDS011;19909;43.644;-79.438;2022-12-10T09:36:47;1.05;;;0.45;;
33579;SDS011;19909;43.644;-79.438;2022-12-10T09:39:13;0.65;;;0.30;;
33579;SDS011;19909;43.644;-79.438;2022-12-10T09:41:56;0.45;;;0.30;;
33579;SDS011;19909;43.644;-79.438;2022-12-10T09:47:52;0.47;;;0.25;;
33579;SDS011;19909;43.644;-79.438;2022-12-10T09:53:03;0.38;;;0.30;;
33579;SDS011;19909;43.644;-79.438;2022-12-10T09:55:35;1.35;;;0.10;;
33579;SDS011;19909;43.644;-79.438;2022-12-10T09:58:05;0.40;;;0.20;;
33579;SDS011;19909;43.644;-79.438;2022-12-10T10:00:39;0.70;;;0.40;;
33579;SDS011;19909;43.644;-79.438;2022-12-10T10:03:13;0.40;;;0.30;;
33579;SDS011;19909;43.644;-79.438;2022-12-10T10:05:41;0.28;;;0.20;;
33579;SDS011;19909;43.644;-79.438;2022-12-10T10:08:21;0.38;;;0.20;;
33579;SDS011;19909;43.644;-79.438;2022-12-10T10:10:52;0.50;;;0.32;;
33579;SDS011;19909;43.644;-79.438;2022-12-10T10:13:34;0.10;;;0.10;;
33579;SDS011;19909;43.644;-79.438;2022-12-10T10:16:25;0.30;;;0.20;;
33579;SDS011;19909;43.644;-79.438;2022-12-10T10:19:03;0.40;;;0.30;;
33579;SDS011;19909;43.644;-79.438;2022-12-10T10:21:38;0.45;;;0.30;;
33579;SDS011;19909;43.644;-79.438;2022-12-10T10:24:06;0.35;;;0.13;;
33579;SDS011;19909;43.644;-79.438;2022-12-10T10:26:37;0.20;;;0.20;;
33579;SDS011;19909;43.644;-79.438;2022-12-10T10:29:05;0.68;;;0.40;;
33579;SDS011;19909;43.644;-79.438;2022-12-10T10:31:34;0.60;;;0.30;;
33579;SDS011;19909;43.644;-79.438;2022-12-10T10:34:04;0.28;;;0.17;;
33579;SDS011;19909;43.644;-79.438;2022-12-10T10:36:37;0.90;;;0.30;;
33579;SDS011;19909;43.644;-79.438;2022-12-10T10:39:08;0.50;;;0.30;;
33579;SDS011;19909;43.644;-79.438;2022-12-10T10:41:40;0.30;;;0.13;;
33579;SDS011;19909;43.644;-79.438;2022-12-10T10:44:15;0.88;;;0.40;;
33579;SDS011;19909;43.644;-79.438;2022-12-10T10:46:48;0.35;;;0.30;;
33579;SDS011;19909;43.644;-79.438;2022-12-10T10:51:52;0.43;;;0.30;;
33579;SDS011;19909;43.644;-79.438;2022-12-10T10:54:33;0.40;;;0.20;;
33579;SDS011;19909;43.644;-79.438;2022-12-10T10:57:03;0.82;;;0.25;;
33579;SDS011;19909;43.644;-79.438;2022-12-10T10:59:51;0.65;;;0.38;;
33579;SDS011;19909;43.644;-79.438;2022-12-10T11:04:52;0.57;;;0.30;;
33579;SDS011;19909;43.644;-79.438;2022-12-10T11:12:40;0.60;;;0.30;;
33579;SDS011;19909;43.644;-79.438;2022-12-10T11:17:52;0.60;;;0.30;;
33579;SDS011;19909;43.644;-79.438;2022-12-10T11:20:25;0.40;;;0.20;;
33579;SDS011;19909;43.644;-79.438;2022-12-10T11:23:08;1.63;;;0.20;;
33579;SDS011;19909;43.644;-79.438;2022-12-10T11:28:15;0.65;;;0.28;;
33579;SDS011;19909;43.644;-79.438;2022-12-10T11:33:45;0.75;;;0.40;;
33579;SDS011;19909;43.644;-79.438;2022-12-10T11:37:02;0.40;;;0.22;;
33579;SDS011;19909;43.644;-79.438;2022-12-10T11:42:21;0.50;;;0.30;;
33579;SDS011;19909;43.644;-79.438;2022-12-10T11:45:06;0.30;;;0.20;;
33579;SDS011;19909;43.644;-79.438;2022-12-10T11:48:07;0.90;;;0.30;;
33579;SDS011;19909;43.644;-79.438;2022-12-10T11:51:38;0.30;;;0.25;;
33579;SDS011;19909;43.644;-79.438;2022-12-10T11:57:06;0.43;;;0.40;;
33579;SDS011;19909;43.644;-79.438;2022-12-10T12:00:32;0.30;;;0.25;;
33579;SDS011;19909;43.644;-79.438;2022-12-10T12:13:35;0.40;;;0.30;;
33579;SDS011;19909;43.644;-79.438;2022-12-10T12:16:12;1.08;;;0.30;;
33579;SDS011;19909;43.644;-79.438;2022-12-10T12:19:05;0.30;;;0.30;;
33579;SDS011;19909;43.644;-79.438;2022-12-10T12:21:57;0.85;;;0.40;;
33579;SDS011;19909;43.644;-79.438;2022-12-10T12:24:39;0.60;;;0.33;;
33579;SDS011;19909;43.644;-79.438;2022-12-10T12:27:13;0.68;;;0.30;;
33579;SDS011;19909;43.644;-79.438;2022-12-10T12:33:28;0.50;;;0.40;;
33579;SDS011;19909;43.644;-79.438;2022-12-10T12:40:52;1.70;;;0.40;;
33579;SDS011;19909;43.644;-79.438;2022-12-10T12:43:20;0.98;;;0.38;;
33579;SDS011;19909;43.644;-79.438;2022-12-10T12:45:53;1.73;;;0.50;;
33579;SDS011;19909;43.644;-79.438;2022-12-10T12:51:33;0.95;;;0.50;;
33579;SDS011;19909;43.644;-79.438;2022-12-10T12:54:06;0.32;;;0.30;;
33579;SDS011;19909;43.644;-79.438;2022-12-10T12:56:42;0.30;;;0.30;;
33579;SDS011;19909;43.644;-79.438;2022-12-10T13:00:19;0.63;;;0.40;;
33579;SDS011;19909;43.644;-79.438;2022-12-10T13:02:45;0.57;;;0.32;;
33579;SDS011;19909;43.644;-79.438;2022-12-10T13:05:32;0.98;;;0.50;;
33579;SDS011;19909;43.644;-79.438;2022-12-10T13:10:57;0.75;;;0.45;;
33579;SDS011;19909;43.644;-79.438;2022-12-10T13:13:40;0.82;;;0.40;;
33579;SDS011;19909;43.644;-79.438;2022-12-10T13:22:03;0.60;;;0.43;;
33579;SDS011;19909;43.644;-79.438;2022-12-10T13:27:10;0.50;;;0.40;;
33579;SDS011;19909;43.644;-79.438;2022-12-10T13:37:53;0.40;;;0.35;;
33579;SDS011;19909;43.644;-79.438;2022-12-10T13:42:56;0.57;;;0.40;;
33579;SDS011;19909;43.644;-79.438;2022-12-10T13:48:46;0.30;;;0.30;;
33579;SDS011;19909;43.644;-79.438;2022-12-10T14:08:29;0.85;;;0.60;;
33579;SDS011;19909;43.644;-79.438;2022-12-10T14:11:01;0.68;;;0.30;;
33579;SDS011;19909;43.644;-79.438;2022-12-10T14:13:40;0.45;;;0.32;;
33579;SDS011;19909;43.644;-79.438;2022-12-10T14:16:13;0.80;;;0.45;;
33579;SDS011;19909;43.644;-79.438;2022-12-10T14:18:44;0.57;;;0.38;;
33579;SDS011;19909;43.644;-79.438;2022-12-10T14:21:17;0.60;;;0.40;;
33579;SDS011;19909;43.644;-79.438;2022-12-10T14:23:47;0.47;;;0.30;;
33579;SDS011;19909;43.644;-79.438;2022-12-10T14:28:42;1.10;;;0.55;;
33579;SDS011;19909;43.644;-79.438;2022-12-10T14:31:16;0.63;;;0.40;;
33579;SDS011;19909;43.644;-79.438;2022-12-10T14:33:50;1.65;;;0.50;;
33579;SDS011;19909;43.644;-79.438;2022-12-10T14:36:28;0.63;;;0.40;;
33579;SDS011;19909;43.644;-79.438;2022-12-10T14:39:00;0.38;;;0.28;;
33579;SDS011;19909;43.644;-79.438;2022-12-10T14:41:28;0.45;;;0.28;;
33579;SDS011;19909;43.644;-79.438;2022-12-10T14:43:57;0.30;;;0.30;;
33579;SDS011;19909;43.644;-79.438;2022-12-10T14:46:28;0.20;;;0.20;;
33579;SDS011;19909;43.644;-79.438;2022-12-10T14:48:56;0.43;;;0.35;;
33579;SDS011;19909;43.644;-79.438;2022-12-10T14:51:24;1.80;;;0.55;;
33579;SDS011;19909;43.644;-79.438;2022-12-10T14:53:53;0.82;;;0.50;;
33579;SDS011;19909;43.644;-79.438;2022-12-10T15:01:29;0.68;;;0.50;;
33579;SDS011;19909;43.644;-79.438;2022-12-10T15:03:57;0.35;;;0.32;;
33579;SDS011;19909;43.644;-79.438;2022-12-10T15:06:26;1.15;;;0.50;;
33579;SDS011;19909;43.644;-79.438;2022-12-10T15:08:53;0.70;;;0.40;;
33579;SDS011;19909;43.644;-79.438;2022-12-10T15:11:23;0.63;;;0.40;;
33579;SDS011;19909;43.644;-79.438;2022-12-10T15:14:00;0.57;;;0.40;;
33579;SDS011;19909;43.644;-79.438;2022-12-10T15:18:54;1.60;;;0.30;;
33579;SDS011;19909;43.644;-79.438;2022-12-10T15:21:23;0.68;;;0.47;;
33579;SDS011;19909;43.644;-79.438;2022-12-10T15:23:50;0.43;;;0.25;;
33579;SDS011;19909;43.644;-79.438;2022-12-10T15:26:33;0.55;;;0.40;;
33579;SDS011;19909;43.644;-79.438;2022-12-10T15:31:48;1.42;;;0.47;;
33579;SDS011;19909;43.644;-79.438;2022-12-10T15:34:15;0.80;;;0.40;;
33579;SDS011;19909;43.644;-79.438;2022-12-10T15:36:50;0.50;;;0.50;;
33579;SDS011;19909;43.644;-79.438;2022-12-10T15:41:59;0.38;;;0.30;;
33579;SDS011;19909;43.644;-79.438;2022-12-10T15:49:43;0.70;;;0.43;;
33579;SDS011;19909;43.644;-79.438;2022-12-10T15:52:13;0.75;;;0.43;;
33579;SDS011;19909;43.644;-79.438;2022-12-10T15:54:42;0.65;;;0.30;;
33579;SDS011;19909;43.644;-79.438;2022-12-10T15:57:11;0.45;;;0.38;;
33579;SDS011;19909;43.644;-79.438;2022-12-10T15:59:47;0.98;;;0.40;;
33579;SDS011;19909;43.644;-79.438;2022-12-10T16:05:26;0.22;;;0.22;;
33579;SDS011;19909;43.644;-79.438;2022-12-10T16:08:22;1.08;;;0.40;;
33579;SDS011;19909;43.644;-79.438;2022-12-10T16:10:49;0.77;;;0.28;;
33579;SDS011;19909;43.644;-79.438;2022-12-10T16:13:20;0.50;;;0.30;;
33579;SDS011;19909;43.644;-79.438;2022-12-10T16:15:55;0.90;;;0.47;;
33579;SDS011;19909;43.644;-79.438;2022-12-10T16:18:25;0.43;;;0.30;;
33579;SDS011;19909;43.644;-79.438;2022-12-10T16:20:52;0.70;;;0.50;;
33579;SDS011;19909;43.644;-79.438;2022-12-10T16:23:18;0.52;;;0.30;;
33579;SDS011;19909;43.644;-79.438;2022-12-10T16:25:45;0.57;;;0.43;;
33579;SDS011;19909;43.644;-79.438;2022-12-10T16:28:19;0.63;;;0.30;;
33579;SDS011;19909;43.644;-79.438;2022-12-10T16:30:47;0.40;;;0.30;;
33579;SDS011;19909;43.644;-79.438;2022-12-10T16:33:22;0.30;;;0.20;;
33579;SDS011;19909;43.644;-79.438;2022-12-10T16:35:50;4.43;;;0.55;;
33579;SDS011;19909;43.644;-79.438;2022-12-10T16:38:20;0.57;;;0.35;;
33579;SDS011;19909;43.644;-79.438;2022-12-10T16:40:48;0.63;;;0.40;;
33579;SDS011;19909;43.644;-79.438;2022-12-10T16:43:19;1.55;;;0.20;;
33579;SDS011;19909;43.644;-79.438;2022-12-10T16:45:47;2.00;;;0.38;;
33579;SDS011;19909;43.644;-79.438;2022-12-10T16:48:13;0.80;;;0.40;;
33579;SDS011;19909;43.644;-79.438;2022-12-10T16:50:40;0.50;;;0.30;;
33579;SDS011;19909;43.644;-79.438;2022-12-10T16:53:26;0.50;;;0.30;;
33579;SDS011;19909;43.644;-79.438;2022-12-10T16:55:55;0.70;;;0.30;;
33579;SDS011;19909;43.644;-79.438;2022-12-10T16:58:22;0.30;;;0.20;;
33579;SDS011;19909;43.644;-79.438;2022-12-10T17:00:50;1.48;;;0.30;;
33579;SDS011;19909;43.644;-79.438;2022-12-10T17:03:21;0.40;;;0.30;;
33579;SDS011;19909;43.644;-79.438;2022-12-10T17:05:49;0.35;;;0.30;;
33579;SDS011;19909;43.644;-79.438;2022-12-10T17:08:16;0.47;;;0.40;;
33579;SDS011;19909;43.644;-79.438;2022-12-10T17:10:42;0.70;;;0.30;;